createdAt,value
2022-08-24T00:00:49.610Z,9.747431
2022-08-24T00:01:49.669Z,9.747460
2022-08-24T00:02:49.661Z,9.747549
2022-08-24T00:03:49.608Z,9.747611
2022-08-24T00:04:50.586Z,9.747467
2022-08-24T00:05:49.579Z,9.747507
2022-08-24T00:06:49.594Z,9.747470
2022-08-24T00:07:49.559Z,9.747507
2022-08-24T00:08:49.554Z,9.747817
2022-08-24T00:09:50.691Z,9.747872
2022-08-24T00:10:49.536Z,9.747749
2022-08-24T00:11:49.555Z,9.747606
2022-08-24T00:12:49.525Z,9.747661
2022-08-24T00:13:49.538Z,9.747835
2022-08-24T00:14:49.613Z,9.747718
2022-08-24T00:15:49.510Z,9.747990
2022-08-24T00:16:49.583Z,9.747784
2022-08-24T00:17:49.503Z,9.747980
2022-08-24T00:18:49.485Z,9.747934
2022-08-24T00:19:49.477Z,9.748121
2022-08-24T00:20:49.468Z,9.748027
2022-08-24T00:21:49.527Z,9.747606
2022-08-24T00:22:49.450Z,9.747707
2022-08-24T00:23:49.492Z,9.747890
2022-08-24T00:24:49.439Z,9.747825
2022-08-24T00:25:49.435Z,9.747768
2022-08-24T00:26:49.448Z,9.747869
2022-08-24T00:27:49.412Z,9.747764
2022-08-24T00:28:49.405Z,9.747706
2022-08-24T00:29:49.396Z,9.747978
2022-08-24T00:30:49.389Z,9.747910
2022-08-24T00:31:49.453Z,9.747686
2022-08-24T00:32:49.382Z,9.747545
2022-08-24T00:33:49.387Z,9.747589
2022-08-24T00:34:58.174Z,9.747698
2022-08-24T00:35:50.355Z,9.747685
2022-08-24T00:36:49.370Z,9.747697
2022-08-24T00:37:49.339Z,9.747767
2022-08-24T00:38:49.334Z,9.747071
2022-08-24T00:39:49.348Z,9.747344
2022-08-24T00:40:49.315Z,9.747165
2022-08-24T00:41:49.332Z,9.747478
2022-08-24T00:42:49.302Z,9.747448
2022-08-24T00:43:49.309Z,9.747378
2022-08-24T00:44:49.284Z,9.747548
2022-08-24T00:45:49.340Z,9.747457
2022-08-24T00:46:49.295Z,9.747351
2022-08-24T00:47:49.263Z,9.747243
2022-08-24T00:48:49.257Z,9.747157
2022-08-24T00:49:49.248Z,9.747268
2022-08-24T00:50:49.241Z,9.747258
2022-08-24T00:51:49.258Z,9.747206
2022-08-24T00:52:49.230Z,9.747447
2022-08-24T00:53:49.224Z,9.747411
2022-08-24T00:54:49.213Z,9.747349
2022-08-24T00:55:49.203Z,9.747355
2022-08-24T00:56:49.222Z,9.747535
2022-08-24T00:57:49.186Z,9.747095
2022-08-24T00:58:57.067Z,9.747337
2022-08-24T00:59:50.175Z,9.747462
2022-08-24T01:00:49.238Z,9.747405
2022-08-24T01:01:49.219Z,9.747402
2022-08-24T01:02:49.211Z,9.747429
2022-08-24T01:03:52.371Z,9.747491
2022-08-24T01:04:50.134Z,9.747574
2022-08-24T01:05:49.132Z,9.747448
2022-08-24T01:06:49.147Z,9.747509
2022-08-24T01:07:49.115Z,9.747695
2022-08-24T01:08:56.294Z,9.747522
2022-08-24T01:09:50.100Z,9.747563
2022-08-24T01:10:49.090Z,9.747512
2022-08-24T01:11:49.114Z,9.747536
2022-08-24T01:13:00.348Z,9.747517
2022-08-24T01:13:50.070Z,9.747523
2022-08-24T01:14:49.061Z,9.747395
2022-08-24T01:15:49.132Z,9.747297
2022-08-24T01:16:49.076Z,9.747268
2022-08-24T01:17:49.041Z,9.747330
2022-08-24T01:18:49.035Z,9.747415
2022-08-24T01:19:49.023Z,9.747465
2022-08-24T01:20:49.022Z,9.747423
2022-08-24T01:21:49.068Z,9.747395
2022-08-24T01:22:49.000Z,9.747417
2022-08-24T01:23:48.999Z,9.747615
2022-08-24T01:24:48.997Z,9.747456
2022-08-24T01:25:48.985Z,9.747447
2022-08-24T01:26:49.013Z,9.747416
2022-08-24T01:27:48.970Z,9.747465
2022-08-24T01:28:48.963Z,9.747526
2022-08-24T01:29:48.954Z,9.747588
2022-08-24T01:30:48.944Z,9.747578
2022-08-24T01:31:48.983Z,9.747532
2022-08-24T01:32:48.966Z,9.747581
2022-08-24T01:33:48.938Z,9.747622
2022-08-24T01:34:48.913Z,9.747566
2022-08-24T01:35:48.911Z,9.747539
2022-08-24T01:36:48.907Z,9.747568
2022-08-24T01:37:48.928Z,9.747614
2022-08-24T01:38:48.886Z,9.747542
2022-08-24T01:39:48.894Z,9.747519
2022-08-24T01:40:48.899Z,9.747591
2022-08-24T01:41:48.887Z,9.747436
2022-08-24T01:42:48.886Z,9.747353
2022-08-24T01:43:48.869Z,9.747386
2022-08-24T01:44:48.838Z,9.747431
2022-08-24T01:45:48.825Z,9.747394
2022-08-24T01:46:48.986Z,9.747508
2022-08-24T01:47:48.841Z,9.747500
2022-08-24T01:48:48.820Z,9.747461
2022-08-24T01:49:48.806Z,9.747390
2022-08-24T01:50:48.796Z,9.747443
2022-08-24T01:51:48.812Z,9.747464
2022-08-24T01:53:23.338Z,9.747526
2022-08-24T01:53:48.776Z,9.747601
2022-08-24T01:54:49.476Z,9.747663
2022-08-24T01:55:48.757Z,9.747536
2022-08-24T01:56:48.757Z,9.747539
2022-08-24T01:57:48.770Z,9.747499
2022-08-24T01:58:48.736Z,9.747500
2022-08-24T01:59:48.728Z,9.747457
2022-08-24T02:00:48.725Z,9.747518
2022-08-24T02:01:48.760Z,9.747487
2022-08-24T02:02:48.786Z,9.747494
2022-08-24T02:03:51.762Z,9.747589
2022-08-24T02:04:48.690Z,9.747685
2022-08-24T02:05:48.682Z,9.747569
2022-08-24T02:06:48.677Z,9.747557
2022-08-24T02:07:48.698Z,9.747499
2022-08-24T02:08:48.664Z,9.747525
2022-08-24T02:09:48.657Z,9.747561
2022-08-24T02:10:54.919Z,9.747496
2022-08-24T02:11:49.637Z,9.747479
2022-08-24T02:12:48.678Z,9.747475
2022-08-24T02:13:48.625Z,9.747434
2022-08-24T02:14:48.626Z,9.747484
2022-08-24T02:15:48.626Z,9.747546
2022-08-24T02:16:48.603Z,9.747514
2022-08-24T02:17:48.623Z,9.747440
2022-08-24T02:18:48.603Z,9.747381
2022-08-24T02:19:48.585Z,9.747636
2022-08-24T02:20:48.570Z,9.747676
2022-08-24T02:21:48.570Z,9.747623
2022-08-24T02:22:48.584Z,9.747499
2022-08-24T02:23:48.552Z,9.747489
2022-08-24T02:24:48.545Z,9.747477
2022-08-24T02:25:48.537Z,9.747508
2022-08-24T02:26:48.531Z,9.747431
2022-08-24T02:27:48.550Z,9.747401
2022-08-24T02:28:48.511Z,9.747459
2022-08-24T02:29:48.501Z,9.747525
2022-08-24T02:30:48.549Z,9.747538
2022-08-24T02:31:48.497Z,9.747384
2022-08-24T02:32:48.503Z,9.747432
2022-08-24T02:33:48.476Z,9.747394
2022-08-24T02:34:48.468Z,9.747456
2022-08-24T02:35:48.457Z,9.747543
2022-08-24T02:36:48.447Z,9.747478
2022-08-24T02:37:48.464Z,9.747383
2022-08-24T02:38:48.433Z,9.747448
2022-08-24T02:39:48.482Z,9.747434
2022-08-24T02:40:48.419Z,9.747424
2022-08-24T02:41:48.411Z,9.747433
2022-08-24T02:42:48.442Z,9.747407
2022-08-24T02:43:48.392Z,9.747391
2022-08-24T02:44:49.456Z,9.747416
2022-08-24T02:45:50.552Z,9.747445
2022-08-24T02:46:49.397Z,9.747387
2022-08-24T02:47:48.387Z,9.747336
2022-08-24T02:48:57.493Z,9.747404
2022-08-24T02:49:49.342Z,9.747497
2022-08-24T02:50:48.332Z,9.747431
2022-08-24T02:51:48.327Z,9.747465
2022-08-24T02:52:48.344Z,9.747426
2022-08-24T02:53:48.307Z,9.747443
2022-08-24T02:54:48.299Z,9.747507
2022-08-24T02:55:48.298Z,9.747486
2022-08-24T02:56:48.294Z,9.747455
2022-08-24T02:57:48.324Z,9.747517
2022-08-24T02:58:48.269Z,9.747542
2022-08-24T02:59:48.255Z,9.747400
2022-08-24T03:00:48.257Z,9.747388
2022-08-24T03:01:49.865Z,9.747435
2022-08-24T03:02:48.310Z,9.747421
2022-08-24T03:03:48.232Z,9.747476
2022-08-24T03:04:49.517Z,9.747483
2022-08-24T03:05:48.221Z,9.747482
2022-08-24T03:06:48.214Z,9.747470
2022-08-24T03:07:48.264Z,9.747509
2022-08-24T03:08:56.203Z,9.747448
2022-08-24T03:09:49.181Z,9.747453
2022-08-24T03:10:49.181Z,9.747482
2022-08-24T03:11:48.168Z,9.747457
2022-08-24T03:12:48.185Z,9.747527
2022-08-24T03:13:48.158Z,9.747479
2022-08-24T03:14:48.152Z,9.747609
2022-08-24T03:15:48.172Z,9.747511
2022-08-24T03:16:48.137Z,9.747483
2022-08-24T03:17:48.159Z,9.747474
2022-08-24T03:18:48.126Z,9.747449
2022-08-24T03:19:48.123Z,9.747402
2022-08-24T03:20:48.111Z,9.747390
2022-08-24T03:21:48.101Z,9.747400
2022-08-24T03:22:48.120Z,9.747410
2022-08-24T03:23:48.085Z,9.747559
2022-08-24T03:24:48.071Z,9.747506
2022-08-24T03:25:48.064Z,9.747460
2022-08-24T03:26:48.065Z,9.747480
2022-08-24T03:27:48.079Z,9.747459
2022-08-24T03:28:49.606Z,9.747491
2022-08-24T03:29:48.032Z,9.747571
2022-08-24T03:30:48.475Z,9.747577
2022-08-24T03:31:48.024Z,9.747521
2022-08-24T03:32:48.058Z,9.747554
2022-08-24T03:33:48.003Z,9.747509
2022-08-24T03:34:47.998Z,9.747628
2022-08-24T03:35:47.994Z,9.747499
2022-08-24T03:36:47.982Z,9.747589
2022-08-24T03:37:47.998Z,9.747477
2022-08-24T03:38:47.965Z,9.747519
2022-08-24T03:39:48.004Z,9.747522
2022-08-24T03:40:47.951Z,9.747466
2022-08-24T03:41:47.958Z,9.747458
2022-08-24T03:42:47.969Z,9.747582
2022-08-24T03:43:47.938Z,9.747547
2022-08-24T03:44:47.926Z,9.747687
2022-08-24T03:45:47.968Z,9.747545
2022-08-24T03:46:47.908Z,9.747503
2022-08-24T03:47:47.930Z,9.747464
2022-08-24T03:48:47.891Z,9.747441
2022-08-24T03:49:47.885Z,9.747492
2022-08-24T03:50:47.887Z,9.747505
2022-08-24T03:51:47.876Z,9.747513
2022-08-24T03:52:47.889Z,9.747509
2022-08-24T03:53:47.855Z,9.747405
2022-08-24T03:54:47.846Z,9.747532
2022-08-24T03:55:47.838Z,9.747569
2022-08-24T03:56:47.826Z,9.747411
2022-08-24T03:57:47.848Z,9.747458
2022-08-24T03:58:47.814Z,9.747555
2022-08-24T03:59:47.811Z,9.747467
2022-08-24T04:00:47.875Z,9.747435
2022-08-24T04:01:47.789Z,9.747482
2022-08-24T04:02:47.843Z,9.747489
2022-08-24T04:03:47.777Z,9.747488
2022-08-24T04:04:47.768Z,9.747330
2022-08-24T04:05:47.761Z,9.747428
2022-08-24T04:06:47.752Z,9.747446
2022-08-24T04:07:47.773Z,9.747422
2022-08-24T04:08:47.739Z,9.747407
2022-08-24T04:09:47.732Z,9.747409
2022-08-24T04:10:47.727Z,9.747356
2022-08-24T04:11:48.681Z,9.747459
2022-08-24T04:12:47.965Z,9.747517
2022-08-24T04:13:48.697Z,9.747478
2022-08-24T04:14:47.692Z,9.747455
2022-08-24T04:15:47.683Z,9.747396
2022-08-24T04:16:48.254Z,9.747392
2022-08-24T04:17:48.767Z,9.747439
2022-08-24T04:18:47.666Z,9.747401
2022-08-24T04:19:47.654Z,9.747481
2022-08-24T04:20:47.645Z,9.747407
2022-08-24T04:21:47.643Z,9.747441
2022-08-24T04:22:47.628Z,9.747409
2022-08-24T04:23:48.119Z,9.747457
2022-08-24T04:24:47.619Z,9.747408
2022-08-24T04:25:47.619Z,9.747439
2022-08-24T04:26:47.623Z,9.747417
2022-08-24T04:27:47.627Z,9.747469
2022-08-24T04:28:47.590Z,9.747397
2022-08-24T04:29:47.575Z,9.747415
2022-08-24T04:30:47.570Z,9.747402
2022-08-24T04:31:47.614Z,9.747422
2022-08-24T04:32:47.549Z,9.747573
2022-08-24T04:33:47.577Z,9.747486
2022-08-24T04:34:48.540Z,9.747459
2022-08-24T04:35:47.535Z,9.747452
2022-08-24T04:36:47.522Z,9.747435
2022-08-24T04:37:47.517Z,9.747421
2022-08-24T04:38:47.544Z,9.747373
2022-08-24T04:39:47.544Z,9.747418
2022-08-24T04:40:47.495Z,9.747360
2022-08-24T04:41:47.484Z,9.747416
2022-08-24T04:42:47.478Z,9.747457
2022-08-24T04:43:47.497Z,9.747415
2022-08-24T04:44:47.456Z,9.747343
2022-08-24T04:45:47.481Z,9.747360
2022-08-24T04:46:47.450Z,9.747443
2022-08-24T04:47:47.442Z,9.747421
2022-08-24T04:48:47.463Z,9.747453
2022-08-24T04:49:47.421Z,9.747478
2022-08-24T04:50:47.419Z,9.747396
2022-08-24T04:51:47.394Z,9.747306
2022-08-24T04:52:48.399Z,9.747480
2022-08-24T04:53:47.411Z,9.747460
2022-08-24T04:54:47.396Z,9.747328
2022-08-24T04:55:47.380Z,9.747386
2022-08-24T04:56:47.365Z,9.747342
2022-08-24T04:57:47.356Z,9.747384
2022-08-24T04:58:47.376Z,9.747333
2022-08-24T04:59:47.344Z,9.747350
2022-08-24T05:00:47.384Z,9.747376
2022-08-24T05:01:47.333Z,9.747366
2022-08-24T05:02:47.357Z,9.747292
2022-08-24T05:03:47.344Z,9.747312
2022-08-24T05:04:47.304Z,9.747387
2022-08-24T05:05:47.301Z,9.747486
2022-08-24T05:06:47.294Z,9.747375
2022-08-24T05:07:48.282Z,9.747391
2022-08-24T05:08:47.303Z,9.747388
2022-08-24T05:09:47.272Z,9.747272
2022-08-24T05:10:47.262Z,9.747303
2022-08-24T05:11:50.053Z,9.747384
2022-08-24T05:12:47.248Z,9.747348
2022-08-24T05:13:47.257Z,9.747345
2022-08-24T05:14:47.230Z,9.747423
2022-08-24T05:15:47.226Z,9.747435
2022-08-24T05:16:52.594Z,9.747353
2022-08-24T05:17:50.938Z,9.747333
2022-08-24T05:18:47.231Z,9.747345
2022-08-24T05:19:47.189Z,9.747370
2022-08-24T05:20:47.186Z,9.747418
2022-08-24T05:21:47.174Z,9.747485
2022-08-24T05:22:47.162Z,9.747439
2022-08-24T05:23:47.191Z,9.747326
2022-08-24T05:24:47.149Z,9.747338
2022-08-24T05:25:47.137Z,9.747310
2022-08-24T05:26:47.131Z,9.747313
2022-08-24T05:27:47.126Z,9.747361
2022-08-24T05:28:47.117Z,9.747515
2022-08-24T05:29:47.134Z,9.747522
2022-08-24T05:30:47.102Z,9.747451
2022-08-24T05:31:47.118Z,9.747580
2022-08-24T05:32:47.091Z,9.747633
2022-08-24T05:33:47.079Z,9.747585
2022-08-24T05:34:47.095Z,9.747497
2022-08-24T05:35:47.107Z,9.747405
2022-08-24T05:36:47.055Z,9.747320
2022-08-24T05:37:47.060Z,9.747427
2022-08-24T05:38:47.045Z,9.747649
2022-08-24T05:39:47.120Z,9.747540
2022-08-24T05:40:47.082Z,9.747396
2022-08-24T05:41:47.024Z,9.747348
2022-08-24T05:42:47.009Z,9.747163
2022-08-24T05:43:47.004Z,9.746973
2022-08-24T05:44:47.022Z,9.746941
2022-08-24T05:45:46.984Z,9.746916
2022-08-24T05:46:47.010Z,9.746955
2022-08-24T05:47:46.973Z,9.747003
2022-08-24T05:48:52.515Z,9.747355
2022-08-24T05:49:47.980Z,9.747209
2022-08-24T05:50:46.950Z,9.747289
2022-08-24T05:51:46.939Z,9.747382
2022-08-24T05:52:46.936Z,9.747132
2022-08-24T05:53:46.926Z,9.747063
2022-08-24T05:54:46.947Z,9.747083
2022-08-24T05:55:46.908Z,9.746824
2022-08-24T05:56:46.899Z,9.747424
2022-08-24T05:57:46.932Z,9.747745
2022-08-24T05:58:46.890Z,9.747387
2022-08-24T05:59:46.906Z,9.747408
2022-08-24T06:00:46.872Z,9.747331
2022-08-24T06:01:46.973Z,9.747298
2022-08-24T06:02:46.946Z,9.747353
2022-08-24T06:03:46.846Z,9.747285
2022-08-24T06:04:46.875Z,9.747307
2022-08-24T06:05:46.826Z,9.747376
2022-08-24T06:06:48.672Z,9.747424
2022-08-24T06:07:46.818Z,9.747309
2022-08-24T06:08:46.815Z,9.747298
2022-08-24T06:09:46.831Z,9.747336
2022-08-24T06:10:46.795Z,9.747357
2022-08-24T06:11:46.792Z,9.747309
2022-08-24T06:12:46.784Z,9.747317
2022-08-24T06:13:46.773Z,9.747286
2022-08-24T06:14:47.793Z,9.747305
2022-08-24T06:16:04.742Z,9.747328
2022-08-24T06:16:48.967Z,9.747357
2022-08-24T06:17:46.782Z,9.747321
2022-08-24T06:18:46.741Z,9.747229
2022-08-24T06:19:46.749Z,9.747324
2022-08-24T06:20:46.718Z,9.747314
2022-08-24T06:21:46.718Z,9.747312
2022-08-24T06:22:46.714Z,9.747416
2022-08-24T06:23:46.691Z,9.747316
2022-08-24T06:24:46.711Z,9.747265
2022-08-24T06:25:46.683Z,9.747310
2022-08-24T06:26:49.954Z,9.747301
2022-08-24T06:27:46.665Z,9.747331
2022-08-24T06:28:46.655Z,9.747345
2022-08-24T06:29:46.674Z,9.747306
2022-08-24T06:30:46.641Z,9.747345
2022-08-24T06:31:46.735Z,9.747341
2022-08-24T06:32:46.625Z,9.747334
2022-08-24T06:33:46.618Z,9.747366
2022-08-24T06:34:46.650Z,9.747295
2022-08-24T06:35:47.632Z,9.747306
2022-08-24T06:36:47.596Z,9.747370
2022-08-24T06:37:46.613Z,9.747341
2022-08-24T06:38:46.862Z,9.747284
2022-08-24T06:39:46.640Z,9.747297
2022-08-24T06:40:46.567Z,9.747335
2022-08-24T06:41:46.569Z,9.747246
2022-08-24T06:42:46.556Z,9.747288
2022-08-24T06:43:46.544Z,9.747323
2022-08-24T06:44:46.543Z,9.747389
2022-08-24T06:45:46.546Z,9.747363
2022-08-24T06:46:46.558Z,9.747275
2022-08-24T06:47:46.509Z,9.747338
2022-08-24T06:48:46.500Z,9.747321
2022-08-24T06:49:46.497Z,9.747388
2022-08-24T06:50:46.509Z,9.747485
2022-08-24T06:51:50.585Z,9.747332
2022-08-24T06:52:47.474Z,9.747379
2022-08-24T06:53:46.459Z,9.747284
2022-08-24T06:54:46.456Z,9.747384
2022-08-24T06:55:46.474Z,9.747405
2022-08-24T06:56:46.434Z,9.747340
2022-08-24T06:57:50.411Z,9.747325
2022-08-24T06:58:48.422Z,9.747405
2022-08-24T06:59:46.420Z,9.747417
2022-08-24T07:00:46.436Z,9.747381
2022-08-24T07:01:46.626Z,9.747369
2022-08-24T07:02:47.460Z,9.747295
2022-08-24T07:03:46.381Z,9.747352
2022-08-24T07:04:46.376Z,9.747381
2022-08-24T07:05:46.396Z,9.747322
2022-08-24T07:06:46.357Z,9.747387
2022-08-24T07:07:46.355Z,9.747329
2022-08-24T07:08:46.343Z,9.747355
2022-08-24T07:09:46.335Z,9.747302
2022-08-24T07:10:46.350Z,9.747359
2022-08-24T07:11:47.326Z,9.747416
2022-08-24T07:12:47.195Z,9.747338
2022-08-24T07:13:47.302Z,9.747306
2022-08-24T07:14:46.299Z,9.747377
2022-08-24T07:15:46.338Z,9.747292
2022-08-24T07:16:46.279Z,9.747362
2022-08-24T07:17:46.280Z,9.747384
2022-08-24T07:18:49.789Z,9.747341
2022-08-24T07:19:47.274Z,9.747313
2022-08-24T07:20:46.287Z,9.747329
2022-08-24T07:21:46.250Z,9.747324
2022-08-24T07:22:46.284Z,9.747293
2022-08-24T07:23:46.232Z,9.747344
2022-08-24T07:24:46.217Z,9.747345
2022-08-24T07:25:49.642Z,9.747321
2022-08-24T07:26:47.207Z,9.747252
2022-08-24T07:27:46.198Z,9.747263
2022-08-24T07:28:46.207Z,9.747303
2022-08-24T07:29:53.039Z,9.747299
2022-08-24T07:30:48.243Z,9.747326
2022-08-24T07:31:46.235Z,9.747322
2022-08-24T07:32:46.165Z,9.747345
2022-08-24T07:33:46.155Z,9.747341
2022-08-24T07:34:46.146Z,9.747292
2022-08-24T07:35:46.172Z,9.747354
2022-08-24T07:36:46.136Z,9.747307
2022-08-24T07:37:46.131Z,9.747385
2022-08-24T07:38:46.122Z,9.747442
2022-08-24T07:39:46.176Z,9.747345
2022-08-24T07:41:09.267Z,9.747412
2022-08-24T07:42:20.763Z,9.747314
2022-08-24T07:42:48.088Z,9.747334
2022-08-24T07:43:46.112Z,9.747385
2022-08-24T07:44:46.067Z,9.747323
2022-08-24T07:45:46.064Z,9.747341
2022-08-24T07:46:46.168Z,9.747331
2022-08-24T07:47:54.721Z,9.747295
2022-08-24T07:48:48.597Z,9.747216
2022-08-24T07:49:46.141Z,9.747248
2022-08-24T07:50:46.022Z,9.747356
2022-08-24T07:51:46.927Z,9.747293
2022-08-24T07:52:46.011Z,9.747380
2022-08-24T07:53:53.634Z,9.747354
2022-08-24T07:54:48.000Z,9.747386
2022-08-24T07:55:46.444Z,9.747321
2022-08-24T07:56:46.011Z,9.747334
2022-08-24T07:57:45.979Z,9.747293
2022-08-24T07:58:45.967Z,9.747327
2022-08-24T07:59:45.995Z,9.747319
2022-08-24T08:00:45.954Z,9.747353
2022-08-24T08:01:46.101Z,9.747292
2022-08-24T08:02:46.047Z,9.747293
2022-08-24T08:03:45.930Z,9.747340
2022-08-24T08:04:45.929Z,9.747463
2022-08-24T08:05:45.917Z,9.747506
2022-08-24T08:06:46.026Z,9.747332
2022-08-24T08:07:48.827Z,9.747340
2022-08-24T08:08:45.894Z,9.747272
2022-08-24T08:09:45.940Z,9.747356
2022-08-24T08:10:45.878Z,9.747323
2022-08-24T08:11:45.895Z,9.747346
2022-08-24T08:12:45.870Z,9.747390
2022-08-24T08:13:45.865Z,9.747329
2022-08-24T08:14:45.871Z,9.747255
2022-08-24T08:15:45.868Z,9.747307
2022-08-24T08:16:45.857Z,9.747463
2022-08-24T08:17:45.835Z,9.747376
2022-08-24T08:18:52.050Z,9.747430
2022-08-24T08:19:46.801Z,9.747441
2022-08-24T08:20:45.803Z,9.747418
2022-08-24T08:21:45.821Z,9.747310
2022-08-24T08:22:45.788Z,9.747316
2022-08-24T08:23:45.779Z,9.747317
2022-08-24T08:24:45.774Z,9.747375
2022-08-24T08:25:47.473Z,9.747468
2022-08-24T08:26:46.781Z,9.747497
2022-08-24T08:27:45.761Z,9.747352
2022-08-24T08:28:45.737Z,9.747399
2022-08-24T08:29:45.817Z,9.747392
2022-08-24T08:30:45.758Z,9.747331
2022-08-24T08:31:45.749Z,9.747367
2022-08-24T08:32:45.709Z,9.747398
2022-08-24T08:33:45.711Z,9.747572
2022-08-24T08:34:45.701Z,9.747508
2022-08-24T08:35:45.701Z,9.747427
2022-08-24T08:36:45.707Z,9.747581
2022-08-24T08:37:45.676Z,9.747570
2022-08-24T08:38:45.670Z,9.747576
2022-08-24T08:39:45.727Z,9.747403
2022-08-24T08:40:45.670Z,9.747378
2022-08-24T08:41:45.671Z,9.747379
2022-08-24T08:42:45.634Z,9.747254
2022-08-24T08:43:45.629Z,9.747197
2022-08-24T08:44:45.624Z,9.747105
2022-08-24T08:45:45.629Z,9.747246
2022-08-24T08:46:45.631Z,9.747306
2022-08-24T08:47:45.600Z,9.747388
2022-08-24T08:48:45.595Z,9.747372
2022-08-24T08:49:45.582Z,9.747341
2022-08-24T08:50:45.573Z,9.747271
2022-08-24T08:51:45.570Z,9.747231
2022-08-24T08:52:45.590Z,9.747376
2022-08-24T08:53:45.550Z,9.747281
2022-08-24T08:54:45.543Z,9.747255
2022-08-24T08:55:45.534Z,9.747323
2022-08-24T08:56:45.531Z,9.747348
2022-08-24T08:57:45.557Z,9.747323
2022-08-24T08:58:57.609Z,9.747311
2022-08-24T08:59:46.510Z,9.747476
2022-08-24T09:00:45.504Z,9.747427
2022-08-24T09:01:47.530Z,9.747340
2022-08-24T09:02:45.512Z,9.747247
2022-08-24T09:03:45.485Z,9.747420
2022-08-24T09:04:45.510Z,9.747359
2022-08-24T09:05:45.498Z,9.747460
2022-08-24T09:06:45.458Z,9.747294
2022-08-24T09:07:45.479Z,9.747426
2022-08-24T09:08:52.325Z,9.747401
2022-08-24T09:09:46.433Z,9.747185
2022-08-24T09:10:45.467Z,9.747252
2022-08-24T09:11:45.429Z,9.747170
2022-08-24T09:12:45.438Z,9.747278
2022-08-24T09:13:45.409Z,9.747412
2022-08-24T09:14:45.396Z,9.747257
2022-08-24T09:15:45.390Z,9.747339
2022-08-24T09:16:45.400Z,9.747283
2022-08-24T09:17:45.410Z,9.747260
2022-08-24T09:18:45.377Z,9.747228
2022-08-24T09:19:45.370Z,9.747294
2022-08-24T09:20:45.362Z,9.747283
2022-08-24T09:21:45.343Z,9.747413
2022-08-24T09:22:45.368Z,9.747449
2022-08-24T09:23:45.341Z,9.747329
2022-08-24T09:24:45.326Z,9.747187
2022-08-24T09:25:45.319Z,9.747338
2022-08-24T09:26:45.314Z,9.747431
2022-08-24T09:27:45.333Z,9.747255
2022-08-24T09:28:46.740Z,9.747442
2022-08-24T09:29:45.294Z,9.747256
2022-08-24T09:30:45.355Z,9.747250
2022-08-24T09:31:45.274Z,9.747418
2022-08-24T09:32:45.301Z,9.747394
2022-08-24T09:33:45.262Z,9.747311
2022-08-24T09:34:45.250Z,9.747355
2022-08-24T09:35:45.244Z,9.747332
2022-08-24T09:36:45.238Z,9.747334
2022-08-24T09:37:45.418Z,9.747431
2022-08-24T09:38:45.222Z,9.747521
2022-08-24T09:39:45.257Z,9.747545
2022-08-24T09:40:45.215Z,9.747499
2022-08-24T09:41:45.201Z,9.747412
2022-08-24T09:42:45.221Z,9.747487
2022-08-24T09:43:45.187Z,9.747527
2022-08-24T09:44:45.178Z,9.747499
2022-08-24T09:45:46.212Z,9.747503
2022-08-24T09:46:45.163Z,9.747449
2022-08-24T09:47:45.184Z,9.747465
2022-08-24T09:48:45.153Z,9.747451
2022-08-24T09:49:45.146Z,9.747399
2022-08-24T09:50:45.139Z,9.747377
2022-08-24T09:51:45.135Z,9.747420
2022-08-24T09:52:45.162Z,9.747519
2022-08-24T09:53:45.114Z,9.747550
2022-08-24T09:54:45.114Z,9.747444
2022-08-24T09:55:45.106Z,9.747455
2022-08-24T09:56:45.088Z,9.747416
2022-08-24T09:57:59.814Z,9.747452
2022-08-24T09:58:47.076Z,9.747284
2022-08-24T09:59:45.068Z,9.747280
2022-08-24T10:00:45.118Z,9.747291
2022-08-24T10:01:45.051Z,9.747214
2022-08-24T10:02:45.105Z,9.747165
2022-08-24T10:03:45.075Z,9.747409
2022-08-24T10:04:45.128Z,9.747364
2022-08-24T10:05:45.139Z,9.747371
2022-08-24T10:06:45.009Z,9.747236
2022-08-24T10:07:45.045Z,9.747534
2022-08-24T10:08:45.011Z,9.747446
2022-08-24T10:09:44.993Z,9.747434
2022-08-24T10:10:44.982Z,9.747310
2022-08-24T10:11:44.982Z,9.747279
2022-08-24T10:12:44.998Z,9.747415
2022-08-24T10:13:44.995Z,9.747485
2022-08-24T10:14:44.951Z,9.747353
2022-08-24T10:15:44.957Z,9.747471
2022-08-24T10:16:44.986Z,9.747512
2022-08-24T10:17:44.937Z,9.747465
2022-08-24T10:18:44.955Z,9.747454
2022-08-24T10:19:44.929Z,9.747538
2022-08-24T10:20:47.879Z,9.747398
2022-08-24T10:21:44.914Z,9.747417
2022-08-24T10:22:44.901Z,9.747463
2022-08-24T10:23:44.915Z,9.747381
2022-08-24T10:24:44.885Z,9.747193
2022-08-24T10:25:44.874Z,9.747288
2022-08-24T10:26:45.153Z,9.747277
2022-08-24T10:27:44.869Z,9.747172
2022-08-24T10:28:44.894Z,9.747150
2022-08-24T10:29:44.851Z,9.747056
2022-08-24T10:30:44.839Z,9.747289
2022-08-24T10:31:44.868Z,9.747263
2022-08-24T10:32:44.823Z,9.747251
2022-08-24T10:33:44.841Z,9.747179
2022-08-24T10:34:44.806Z,9.747212
2022-08-24T10:35:44.795Z,9.747145
2022-08-24T10:36:44.797Z,9.746880
2022-08-24T10:37:44.781Z,9.747463
2022-08-24T10:38:44.813Z,9.747268
2022-08-24T10:39:44.776Z,9.747275
2022-08-24T10:40:44.854Z,9.747194
2022-08-24T10:41:44.753Z,9.747039
2022-08-24T10:42:44.747Z,9.747259
2022-08-24T10:43:44.761Z,9.747263
2022-08-24T10:44:44.738Z,9.747154
2022-08-24T10:45:46.735Z,9.746993
2022-08-24T10:46:44.716Z,9.747002
2022-08-24T10:47:44.722Z,9.747035
2022-08-24T10:48:44.730Z,9.747029
2022-08-24T10:49:44.697Z,9.747218
2022-08-24T10:50:44.698Z,9.747114
2022-08-24T10:51:44.682Z,9.747245
2022-08-24T10:52:44.680Z,9.747290
2022-08-24T10:53:44.696Z,9.747264
2022-08-24T10:54:44.669Z,9.747196
2022-08-24T10:55:44.659Z,9.747226
2022-08-24T10:56:44.642Z,9.747267
2022-08-24T10:57:44.638Z,9.747257
2022-08-24T10:58:44.656Z,9.747220
2022-08-24T10:59:44.620Z,9.747104
2022-08-24T11:00:44.664Z,9.747088
2022-08-24T11:01:44.635Z,9.747076
2022-08-24T11:02:44.595Z,9.747112
2022-08-24T11:03:44.623Z,9.747081
2022-08-24T11:04:44.584Z,9.746986
2022-08-24T11:05:44.576Z,9.746748
2022-08-24T11:06:44.575Z,9.747010
2022-08-24T11:07:44.561Z,9.747208
2022-08-24T11:08:44.581Z,9.747325
2022-08-24T11:09:44.560Z,9.747320
2022-08-24T11:10:44.551Z,9.747293
2022-08-24T11:11:44.535Z,9.747319
2022-08-24T11:12:44.526Z,9.747186
2022-08-24T11:13:44.573Z,9.747293
2022-08-24T11:14:44.519Z,9.747268
2022-08-24T11:15:44.510Z,9.747280
2022-08-24T11:16:44.562Z,9.747285
2022-08-24T11:17:44.492Z,9.747325
2022-08-24T11:18:44.506Z,9.747340
2022-08-24T11:19:44.473Z,9.747389
2022-08-24T11:20:44.467Z,9.747382
2022-08-24T11:21:44.464Z,9.747471
2022-08-24T11:22:44.454Z,9.747377
2022-08-24T11:23:44.479Z,9.747303
2022-08-24T11:24:44.444Z,9.747284
2022-08-24T11:25:44.433Z,9.747370
2022-08-24T11:26:44.430Z,9.747371
2022-08-24T11:27:44.418Z,9.747393
2022-08-24T11:28:44.489Z,9.747407
2022-08-24T11:29:44.420Z,9.747387
2022-08-24T11:30:44.403Z,9.747394
2022-08-24T11:31:44.417Z,9.747355
2022-08-24T11:32:44.380Z,9.747287
2022-08-24T11:33:44.414Z,9.747318
2022-08-24T11:34:44.367Z,9.747330
2022-08-24T11:35:44.364Z,9.747355
2022-08-24T11:36:44.352Z,9.747388
2022-08-24T11:37:44.344Z,9.747299
2022-08-24T11:38:45.886Z,9.747347
2022-08-24T11:39:44.369Z,9.747417
2022-08-24T11:40:44.333Z,9.747316
2022-08-24T11:41:44.316Z,9.747289
2022-08-24T11:42:44.307Z,9.747342
2022-08-24T11:43:44.299Z,9.747355
2022-08-24T11:44:44.314Z,9.747399